createdAt,value
2023-02-22T00:02:10.459Z,101109.94
2023-02-22T00:04:39.536Z,101107.28
2023-02-22T00:07:07.124Z,101111.72
2023-02-22T00:09:33.992Z,101105.50
2023-02-22T00:12:01.187Z,101113.47
2023-02-22T00:14:31.220Z,101111.72
2023-02-22T00:16:59.608Z,101107.28
2023-02-22T00:19:28.050Z,101115.25
2023-02-22T00:21:54.931Z,101112.59
2023-02-22T00:24:24.184Z,101111.72
2023-02-22T00:26:55.363Z,101108.16
2023-02-22T00:29:23.551Z,101113.47
2023-02-22T00:31:50.554Z,101108.16
2023-02-22T00:34:17.503Z,101109.06
2023-02-22T00:36:48.712Z,101110.84
2023-02-22T00:39:16.057Z,101108.19
2023-02-22T00:41:43.273Z,101113.47
2023-02-22T00:44:10.168Z,101102.84
2023-02-22T00:46:36.939Z,101101.09
2023-02-22T00:49:05.219Z,101096.66
2023-02-22T00:51:32.068Z,101102.88
2023-02-22T00:53:58.945Z,101101.09
2023-02-22T00:56:25.757Z,101096.66
2023-02-22T00:58:52.521Z,101091.34
2023-02-22T01:01:19.600Z,101090.47
2023-02-22T01:03:46.476Z,101091.38
2023-02-22T01:06:13.309Z,101086.94
2023-02-22T01:08:44.999Z,101079.84
2023-02-22T01:11:12.438Z,101080.75
2023-02-22T01:13:39.551Z,101077.19
2023-02-22T01:16:10.436Z,101072.78
2023-02-22T01:18:37.766Z,101073.66
2023-02-22T01:21:05.617Z,101071.91
2023-02-22T01:23:32.588Z,101067.47
2023-02-22T01:25:59.335Z,101076.34
2023-02-22T01:28:26.119Z,101073.66
2023-02-22T01:30:53.021Z,101069.22
2023-02-22T01:33:19.808Z,101056.88
2023-02-22T01:35:46.849Z,101067.47
2023-02-22T01:38:14.356Z,101064.81
2023-02-22T01:40:44.160Z,101063.03
2023-02-22T01:43:29.677Z,101055.09
2023-02-22T01:46:27.564Z,101052.44
2023-02-22T01:49:06.209Z,101049.75
2023-02-22T01:52:02.006Z,101051.50
2023-02-22T01:54:35.088Z,101055.94
2023-02-22T01:57:32.173Z,101046.22
2023-02-22T02:00:10.081Z,101046.22
2023-02-22T02:02:47.531Z,101046.19
2023-02-22T02:05:15.054Z,101039.09
2023-02-22T02:07:45.391Z,101031.16
2023-02-22T02:10:15.423Z,101033.81
2023-02-22T02:12:46.813Z,101040.88
2023-02-22T02:15:21.284Z,101039.09
2023-02-22T02:17:51.146Z,101035.59
2023-02-22T02:20:46.821Z,101027.63
2023-02-22T02:24:02.388Z,101026.69
2023-02-22T02:27:16.830Z,101026.72
2023-02-22T02:30:28.061Z,101022.28
2023-02-22T02:33:26.666Z,101020.50
2023-02-22T02:36:13.784Z,101019.63
2023-02-22T02:38:56.579Z,101019.59
2023-02-22T02:41:34.169Z,101024.03
2023-02-22T02:44:15.720Z,101032.88
2023-02-22T02:46:56.204Z,101019.63
2023-02-22T02:49:35.644Z,101016.97
2023-02-22T02:52:04.918Z,101016.94
2023-02-22T02:54:33.155Z,101017.84
2023-02-22T02:57:00.100Z,101016.97
2023-02-22T02:59:39.696Z,101011.66
2023-02-22T03:02:31.414Z,101017.84
2023-02-22T03:05:26.686Z,101004.56
2023-02-22T03:08:31.706Z,101007.19
2023-02-22T03:11:15.070Z,101002.78
2023-02-22T03:14:25.162Z,100996.59
2023-02-22T03:17:19.758Z,100993.03
2023-02-22T03:20:05.305Z,100993.94
2023-02-22T03:22:48.041Z,100998.31
2023-02-22T03:25:22.909Z,100995.66
2023-02-22T03:27:54.561Z,100995.66
2023-02-22T03:30:35.861Z,100991.22
2023-02-22T03:33:11.051Z,100989.47
2023-02-22T03:35:48.072Z,100985.91
2023-02-22T03:38:19.182Z,100987.66
2023-02-22T03:40:51.281Z,100987.66
2023-02-22T03:43:26.022Z,100983.22
2023-02-22T03:45:53.350Z,100982.31
2023-02-22T03:48:26.445Z,100979.66
2023-02-22T03:50:53.728Z,100975.22
2023-02-22T03:53:23.121Z,100976.94
2023-02-22T03:55:51.731Z,100977.75
2023-02-22T03:58:22.234Z,100975.09
2023-02-22T04:00:52.951Z,100973.31
2023-02-22T04:03:23.460Z,100975.06
2023-02-22T04:05:50.508Z,100971.53
2023-02-22T04:08:17.639Z,100975.06
2023-02-22T04:10:44.482Z,100969.75
2023-02-22T04:13:11.445Z,100966.25
2023-02-22T04:15:38.235Z,100968.88
2023-02-22T04:18:05.757Z,100965.38
2023-02-22T04:20:32.562Z,100965.34
2023-02-22T04:22:59.341Z,100967.97
2023-02-22T04:25:26.111Z,100966.19
2023-02-22T04:27:53.709Z,100967.94
2023-02-22T04:30:21.050Z,100964.38
2023-02-22T04:32:47.870Z,100969.59
2023-02-22T04:35:14.705Z,100966.09
2023-02-22T04:37:41.504Z,100960.75
2023-02-22T04:40:09.019Z,100957.19
2023-02-22T04:42:37.064Z,100965.09
2023-02-22T04:45:07.892Z,100961.53
2023-02-22T04:47:36.068Z,100958.88
2023-02-22T04:50:08.929Z,100957.97
2023-02-22T04:52:35.691Z,100949.13
2023-02-22T04:55:02.477Z,100961.44
2023-02-22T04:57:29.257Z,100954.38
2023-02-22T04:59:56.508Z,100957.88
2023-02-22T05:02:23.411Z,100956.97
2023-02-22T05:04:50.652Z,100964.03
2023-02-22T05:07:17.674Z,100953.38
2023-02-22T05:09:44.511Z,100951.66
2023-02-22T05:12:11.350Z,100952.50
2023-02-22T05:14:38.176Z,100958.66
2023-02-22T05:17:05.782Z,100958.66
2023-02-22T05:19:32.677Z,100955.09
2023-02-22T05:22:00.139Z,100951.56
2023-02-22T05:24:26.933Z,100955.09
2023-02-22T05:26:53.734Z,100957.72
2023-02-22T05:29:21.052Z,100950.66
2023-02-22T05:31:47.972Z,100959.50
2023-02-22T05:34:16.169Z,100960.41
2023-02-22T05:36:43.120Z,100957.78
2023-02-22T05:39:09.922Z,100955.22
2023-02-22T05:41:36.736Z,100950.84
2023-02-22T05:44:04.092Z,100943.84
2023-02-22T05:46:30.889Z,100943.91
2023-02-22T05:48:57.758Z,100942.16
2023-02-22T05:51:24.716Z,100938.66
2023-02-22T05:53:52.498Z,100930.75
2023-02-22T05:56:28.410Z,100922.84
2023-02-22T05:58:55.336Z,100919.34
2023-02-22T06:01:22.150Z,100910.56
2023-02-22T06:03:50.739Z,100918.50
2023-02-22T06:06:20.062Z,100917.63
2023-02-22T06:08:48.033Z,100918.50
2023-02-22T06:11:15.013Z,100916.78
2023-02-22T06:13:41.951Z,100923.84
2023-02-22T06:16:08.766Z,100923.84
2023-02-22T06:18:35.606Z,100922.97
2023-02-22T06:21:02.556Z,100922.97
2023-02-22T06:23:29.334Z,100922.09
2023-02-22T06:25:56.113Z,100925.63
2023-02-22T06:28:23.702Z,100922.06
2023-02-22T06:30:50.529Z,100925.59
2023-02-22T06:33:17.359Z,100922.94
2023-02-22T06:35:45.134Z,100936.16
2023-02-22T06:38:11.918Z,100929.09
2023-02-22T06:40:38.711Z,100921.16
2023-02-22T06:43:05.578Z,100920.28
2023-02-22T06:45:32.388Z,100922.94
2023-02-22T06:47:59.507Z,100920.28
2023-02-22T06:50:31.162Z,100918.50
2023-02-22T06:52:58.586Z,100918.50
2023-02-22T06:55:29.504Z,100921.16
2023-02-22T06:57:56.549Z,100920.25
2023-02-22T07:00:26.145Z,100924.66
2023-02-22T07:02:54.166Z,100925.53
2023-02-22T07:05:23.731Z,100929.94
2023-02-22T07:07:53.358Z,100929.94
2023-02-22T07:10:28.587Z,100937.91
2023-02-22T07:12:55.476Z,100929.97
2023-02-22T07:15:25.890Z,100935.28
2023-02-22T07:17:52.768Z,100932.66
2023-02-22T07:20:20.498Z,100929.16
2023-02-22T07:22:48.402Z,100929.19
2023-02-22T07:25:15.362Z,100932.72
2023-02-22T07:27:42.878Z,100929.22
2023-02-22T07:30:30.482Z,100931.03
2023-02-22T07:33:00.378Z,100929.31
2023-02-22T07:35:30.288Z,100924.00
2023-02-22T07:37:57.609Z,100924.03
2023-02-22T07:40:27.099Z,100930.25
2023-02-22T07:43:16.537Z,100924.94
2023-02-22T07:45:43.939Z,100929.38
2023-02-22T07:48:12.907Z,100925.88
2023-02-22T07:50:40.628Z,100921.47
2023-02-22T07:53:12.633Z,100911.78
2023-02-22T07:55:39.428Z,100911.78
2023-02-22T07:58:09.329Z,100914.44
2023-02-22T08:00:42.256Z,100909.13
2023-02-22T08:03:12.830Z,100904.69
2023-02-22T08:05:44.496Z,100910.91
2023-02-22T08:08:11.509Z,100899.41
2023-02-22T08:10:38.488Z,100909.13
2023-02-22T08:13:06.409Z,100911.78
2023-02-22T08:15:36.556Z,100903.81
2023-02-22T08:18:09.059Z,100917.06
2023-02-22T08:20:37.424Z,100903.78
2023-02-22T08:23:05.929Z,100902.94
2023-02-22T08:25:33.030Z,100909.97
2023-02-22T08:28:03.312Z,100911.75
2023-02-22T08:30:31.736Z,100909.09
2023-02-22T08:32:59.595Z,100909.94
2023-02-22T08:35:27.462Z,100905.47
2023-02-22T08:37:58.744Z,100905.47
2023-02-22T08:40:29.436Z,100906.31
2023-02-22T08:42:56.232Z,100904.50
2023-02-22T08:45:23.111Z,100902.69
2023-02-22T08:47:50.286Z,100900.91
2023-02-22T08:50:24.305Z,100903.53
2023-02-22T08:52:52.965Z,100894.66
2023-02-22T08:55:30.441Z,100897.25
2023-02-22T08:57:57.205Z,100898.16
2023-02-22T09:00:29.458Z,100884.84
2023-02-22T09:02:56.222Z,100888.31
2023-02-22T09:05:23.111Z,100894.47
2023-02-22T09:07:49.961Z,100893.50
2023-02-22T09:10:24.894Z,100893.47
2023-02-22T09:12:55.389Z,100881.88
2023-02-22T09:15:22.756Z,100880.94
2023-02-22T09:17:49.976Z,100884.44
2023-02-22T09:20:19.384Z,100879.03
2023-02-22T09:22:48.286Z,100882.53
2023-02-22T09:25:17.220Z,100886.06
2023-02-22T09:27:47.855Z,100881.63
2023-02-22T09:30:26.158Z,100874.47
2023-02-22T09:32:56.304Z,100868.31
2023-02-22T09:35:27.318Z,100873.63
2023-02-22T09:37:57.694Z,100861.19
2023-02-22T09:40:32.057Z,100864.75
2023-02-22T09:43:07.888Z,100863.91
2023-02-22T09:45:51.421Z,100861.25
2023-02-22T09:48:22.490Z,100863.91
2023-02-22T09:50:52.944Z,100860.31
2023-02-22T09:53:35.994Z,100863.78
2023-02-22T09:56:11.814Z,100852.25
2023-02-22T09:58:42.918Z,100858.41
2023-02-22T10:01:27.938Z,100869.94
2023-02-22T10:04:24.940Z,100853.94
2023-02-22T10:07:36.965Z,100853.88
2023-02-22T10:10:06.742Z,100852.13
2023-02-22T10:13:00.260Z,100852.06
2023-02-22T10:15:44.957Z,100847.59
2023-02-22T10:18:32.770Z,100851.19
2023-02-22T10:21:32.172Z,100852.00
2023-02-22T10:24:24.664Z,100848.38
2023-02-22T10:26:54.071Z,100850.09
2023-02-22T10:29:34.810Z,100844.69
2023-02-22T10:32:04.926Z,100838.44
2023-02-22T10:34:42.482Z,100842.81
2023-02-22T10:37:27.721Z,100835.72
2023-02-22T10:40:23.115Z,100838.31
2023-02-22T10:42:50.953Z,100826.78
2023-02-22T10:45:28.346Z,100827.59
2023-02-22T10:47:59.115Z,100819.53
2023-02-22T10:50:32.108Z,100825.69
2023-02-22T10:52:58.919Z,100813.19
2023-02-22T10:55:25.883Z,100806.88
2023-02-22T10:58:04.478Z,100808.56
2023-02-22T11:00:37.398Z,100806.75
2023-02-22T11:03:23.240Z,100795.16
2023-02-22T11:05:50.750Z,100793.34
2023-02-22T11:08:32.921Z,100795.94
2023-02-22T11:11:25.328Z,100789.69
2023-02-22T11:13:56.966Z,100787.00
2023-02-22T11:16:47.570Z,100781.66
2023-02-22T11:19:30.229Z,100779.00
2023-02-22T11:22:07.835Z,100773.66
2023-02-22T11:24:48.477Z,100779.88
2023-02-22T11:27:43.921Z,100773.63
2023-02-22T11:30:30.131Z,100776.31
2023-02-22T11:33:23.773Z,100762.06
2023-02-22T11:35:58.079Z,100765.56
2023-02-22T11:38:34.663Z,100762.84
2023-02-22T11:41:18.261Z,100758.31
2023-02-22T11:43:48.050Z,100763.63
2023-02-22T11:46:20.611Z,100748.41
2023-02-22T11:49:02.273Z,100738.53
2023-02-22T11:52:01.016Z,100742.00
2023-02-22T11:55:41.891Z,100740.16
2023-02-22T11:58:34.059Z,100728.53
2023-02-22T12:01:27.026Z,100737.25
2023-02-22T12:04:28.579Z,100735.34
2023-02-22T12:07:54.055Z,100738.81
2023-02-22T12:10:46.968Z,100722.72
2023-02-22T12:13:27.050Z,100722.63
2023-02-22T12:16:04.090Z,100725.19
2023-02-22T12:18:56.279Z,100721.47
2023-02-22T12:21:24.946Z,100710.75
2023-02-22T12:23:55.413Z,100714.25
2023-02-22T12:26:32.606Z,100715.16
2023-02-22T12:29:12.161Z,100717.78
2023-02-22T12:31:50.045Z,100708.88
2023-02-22T12:34:21.616Z,100699.03
2023-02-22T12:37:23.691Z,100702.50
2023-02-22T12:39:59.905Z,100701.53
2023-02-22T12:42:44.712Z,100703.28
2023-02-22T12:45:28.236Z,100703.13
2023-02-22T12:48:43.202Z,100701.31
2023-02-22T12:51:47.179Z,100697.75
2023-02-22T12:54:46.356Z,100703.88
2023-02-22T12:57:25.765Z,100697.66
2023-02-22T13:00:01.153Z,100694.00
2023-02-22T13:02:37.076Z,100674.41
2023-02-22T13:05:04.165Z,100680.53
2023-02-22T13:07:40.316Z,100680.44
2023-02-22T13:10:50.973Z,100677.69
2023-02-22T13:13:30.356Z,100672.31
2023-02-22T13:16:23.788Z,100666.00
2023-02-22T13:19:14.230Z,100669.47
2023-02-22T13:21:49.557Z,100675.72
2023-02-22T13:24:31.386Z,100664.13
2023-02-22T13:27:38.682Z,100655.19
2023-02-22T13:30:14.812Z,100654.22
2023-02-22T13:33:03.507Z,100654.13
2023-02-22T13:35:56.345Z,100649.59
2023-02-22T13:39:05.292Z,100649.59
2023-02-22T13:41:47.083Z,100641.50
2023-02-22T13:44:51.286Z,100635.22
2023-02-22T13:47:36.327Z,100631.66
2023-02-22T13:50:30.951Z,100628.94
2023-02-22T13:52:59.861Z,100627.19
2023-02-22T13:55:32.692Z,100629.78
2023-02-22T13:58:05.035Z,100628.88
2023-02-22T14:00:52.092Z,100619.94
2023-02-22T14:03:23.866Z,100624.38
2023-02-22T14:05:53.712Z,100619.03
2023-02-22T14:08:21.636Z,100612.72
2023-02-22T14:10:49.875Z,100619.84
2023-02-22T14:13:26.645Z,100614.41
2023-02-22T14:16:02.530Z,100614.41
2023-02-22T14:18:43.821Z,100611.72
2023-02-22T14:21:20.953Z,100617.94
2023-02-22T14:23:56.421Z,100613.47
2023-02-22T14:26:33.252Z,100609.91
2023-02-22T14:29:17.108Z,100603.66
2023-02-22T14:31:43.990Z,100605.47
2023-02-22T14:34:15.508Z,100605.47
2023-02-22T14:36:51.934Z,100603.66
2023-02-22T14:39:42.035Z,100601.03
2023-02-22T14:42:36.858Z,100594.84
2023-02-22T14:45:09.501Z,100598.50
2023-02-22T14:47:50.365Z,100594.09
2023-02-22T14:50:23.999Z,100589.63
2023-02-22T14:53:03.505Z,100596.78
2023-02-22T14:55:34.001Z,100587.91
2023-02-22T14:58:26.031Z,100591.53
2023-02-22T15:00:56.688Z,100587.13
2023-02-22T15:03:37.251Z,100584.47
2023-02-22T15:06:17.268Z,100592.53
2023-02-22T15:08:48.780Z,100591.66
2023-02-22T15:11:31.035Z,100583.66
2023-02-22T15:13:59.840Z,100582.84
2023-02-22T15:16:31.254Z,100581.09
2023-02-22T15:19:00.939Z,100578.47
2023-02-22T15:21:29.852Z,100571.41
2023-02-22T15:24:02.567Z,100579.41
2023-02-22T15:26:51.924Z,100575.03
2023-02-22T15:29:36.469Z,100568.91
2023-02-22T15:32:19.013Z,100573.38
2023-02-22T15:34:46.172Z,100568.97
2023-02-22T15:37:25.138Z,100572.56
2023-02-22T15:39:59.192Z,100574.38
2023-02-22T15:42:30.269Z,100569.13
2023-02-22T15:44:58.037Z,100570.94
2023-02-22T15:47:31.980Z,100573.63
2023-02-22T15:50:18.099Z,100577.28
2023-02-22T15:53:20.357Z,100563.16
2023-02-22T15:55:49.450Z,100576.59
2023-02-22T15:58:16.084Z,100573.13
2023-02-22T16:00:48.708Z,100574.94
2023-02-22T16:03:27.640Z,100576.81
2023-02-22T16:05:57.051Z,100565.34
2023-02-22T16:08:31.127Z,100561.88
2023-02-22T16:11:02.737Z,100564.66
2023-02-22T16:13:33.997Z,100564.75
2023-02-22T16:16:24.652Z,100563.06
2023-02-22T16:18:52.364Z,100570.31
2023-02-22T16:21:22.274Z,100571.31
2023-02-22T16:24:10.207Z,100578.50
2023-02-22T16:26:41.758Z,100574.25
2023-02-22T16:29:09.190Z,100577.91
2023-02-22T16:31:39.292Z,100580.63
2023-02-22T16:34:07.980Z,100582.53
2023-02-22T16:36:44.764Z,100582.63
2023-02-22T16:39:24.491Z,100582.78
2023-02-22T16:41:51.890Z,100585.56
2023-02-22T16:44:18.735Z,100584.84
2023-02-22T16:46:45.525Z,100584.03
2023-02-22T16:49:14.717Z,100585.00
2023-02-22T16:51:49.477Z,100585.09
2023-02-22T16:54:25.995Z,100585.22
2023-02-22T16:56:54.987Z,100595.06
2023-02-22T16:59:22.468Z,100588.03
2023-02-22T17:01:49.562Z,100593.44
2023-02-22T17:04:20.215Z,100589.97
2023-02-22T17:06:47.981Z,100589.16
2023-02-22T17:09:15.565Z,100594.56
2023-02-22T17:11:43.312Z,100591.97
2023-02-22T17:14:16.850Z,100599.09
2023-02-22T17:16:43.612Z,100600.94
2023-02-22T17:19:17.235Z,100601.81
2023-02-22T17:21:44.106Z,100590.34
2023-02-22T17:24:14.229Z,100597.44
2023-02-22T17:26:41.641Z,100597.47
2023-02-22T17:29:08.544Z,100593.91
2023-02-22T17:31:35.781Z,100605.53
2023-02-22T17:34:04.884Z,100601.09
2023-02-22T17:36:33.890Z,100595.78
2023-02-22T17:39:00.837Z,100597.59
2023-02-22T17:41:27.665Z,100600.28
2023-02-22T17:43:54.485Z,100603.84
2023-02-22T17:46:21.812Z,100602.97
2023-02-22T17:48:48.639Z,100612.78
2023-02-22T17:51:15.399Z,100603.03
2023-02-22T17:53:42.173Z,100611.03
2023-02-22T17:56:13.350Z,100615.50
2023-02-22T17:58:41.423Z,100616.44
2023-02-22T18:01:27.234Z,100615.63
2023-02-22T18:03:59.405Z,100620.97
2023-02-22T18:06:29.909Z,100624.59
2023-02-22T18:08:59.378Z,100621.94
2023-02-22T18:11:28.860Z,100626.44
2023-02-22T18:13:57.632Z,100622.06
2023-02-22T18:16:25.936Z,100619.47
2023-02-22T18:18:56.411Z,100618.63
2023-02-22T18:21:24.118Z,100613.31
2023-02-22T18:23:50.899Z,100616.94
2023-02-22T18:26:21.668Z,100620.50
2023-02-22T18:28:49.244Z,100612.56
2023-02-22T18:31:20.536Z,100615.28
2023-02-22T18:33:51.140Z,100618.00
2023-02-22T18:36:23.176Z,100616.25
2023-02-22T18:38:52.820Z,100615.41
2023-02-22T18:41:25.044Z,100624.28
2023-02-22T18:43:54.991Z,100619.91
2023-02-22T18:46:23.449Z,100616.41
2023-02-22T18:48:54.499Z,100625.28
2023-02-22T18:51:21.785Z,100616.44
2023-02-22T18:53:49.877Z,100620.94
2023-02-22T18:56:21.770Z,100620.03
2023-02-22T18:58:57.163Z,100616.53
2023-02-22T19:01:24.009Z,100617.44
2023-02-22T19:03:51.889Z,100614.81
2023-02-22T19:06:22.396Z,100612.16
2023-02-22T19:08:50.626Z,100610.41
2023-02-22T19:11:24.097Z,100611.34
2023-02-22T19:13:53.908Z,100603.38
2023-02-22T19:16:22.909Z,100606.06
2023-02-22T19:18:52.789Z,100606.06
2023-02-22T19:21:20.814Z,100599.88
2023-02-22T19:23:48.646Z,100610.50
2023-02-22T19:26:20.314Z,100602.53
2023-02-22T19:28:48.313Z,100603.47
2023-02-22T19:31:26.544Z,100604.31
2023-02-22T19:33:53.721Z,100591.06
2023-02-22T19:36:25.654Z,100600.88
2023-02-22T19:38:52.702Z,100602.66
2023-02-22T19:41:22.768Z,100601.75
2023-02-22T19:43:52.519Z,100600.94
2023-02-22T19:46:21.242Z,100602.72
2023-02-22T19:48:53.689Z,100602.75
2023-02-22T19:51:25.418Z,100597.44
2023-02-22T19:53:53.180Z,100589.53
2023-02-22T19:56:28.403Z,100595.78
2023-02-22T19:58:58.621Z,100595.75
2023-02-22T20:01:33.079Z,100599.34
2023-02-22T20:04:22.904Z,100597.56
2023-02-22T20:06:56.521Z,100601.16
2023-02-22T20:09:29.990Z,100595.91
2023-02-22T20:11:57.222Z,100593.31
2023-02-22T20:14:28.303Z,100599.53
2023-02-22T20:16:56.457Z,100596.00
2023-02-22T20:19:24.435Z,100600.47
2023-02-22T20:21:52.385Z,100611.16
2023-02-22T20:24:19.402Z,100599.66
2023-02-22T20:26:47.064Z,100606.78
2023-02-22T20:29:14.985Z,100603.22
2023-02-22T20:31:44.125Z,100603.28
2023-02-22T20:34:11.754Z,100605.06
2023-02-22T20:36:41.369Z,100608.63
2023-02-22T20:39:13.809Z,100601.56
2023-02-22T20:41:43.592Z,100605.97
2023-02-22T20:44:14.704Z,100612.22
2023-02-22T20:46:42.782Z,100605.13
2023-02-22T20:49:13.381Z,100615.75
2023-02-22T20:51:41.741Z,100612.25
2023-02-22T20:54:11.474Z,100611.38
2023-02-22T20:56:41.778Z,100610.50
2023-02-22T20:59:12.953Z,100611.38
2023-02-22T21:01:40.564Z,100609.66
2023-02-22T21:04:13.428Z,100610.53
2023-02-22T21:06:41.233Z,100615.84
2023-02-22T21:09:20.265Z,100618.50
2023-02-22T21:11:47.736Z,100609.69
2023-02-22T21:14:18.771Z,100616.78
2023-02-22T21:16:51.138Z,100615.00
2023-02-22T21:19:25.849Z,100602.66
2023-02-22T21:21:55.709Z,100605.31
2023-02-22T21:24:25.138Z,100608.84
2023-02-22T21:26:52.198Z,100603.53
2023-02-22T21:29:19.552Z,100608.84
2023-02-22T21:31:46.443Z,100604.41
2023-02-22T21:34:17.382Z,100601.81
2023-02-22T21:36:45.353Z,100596.50
2023-02-22T21:39:18.084Z,100594.75
2023-02-22T21:41:51.214Z,100601.84
2023-02-22T21:44:18.764Z,100597.47
2023-02-22T21:46:48.723Z,100600.13
2023-02-22T21:49:16.395Z,100593.06
2023-02-22T21:51:44.819Z,100596.59
2023-02-22T21:54:12.455Z,100588.69
2023-02-22T21:56:41.887Z,100589.56
2023-02-22T21:59:14.175Z,100586.06
2023-02-22T22:01:51.393Z,100587.84
2023-02-22T22:04:22.579Z,100578.97
2023-02-22T22:06:54.229Z,100584.34
2023-02-22T22:09:23.510Z,100585.22
2023-02-22T22:11:58.234Z,100578.13
2023-02-22T22:14:26.379Z,100582.59
2023-02-22T22:16:58.405Z,100585.28
2023-02-22T22:19:29.556Z,100583.50
2023-02-22T22:21:58.154Z,100584.44
2023-02-22T22:24:25.711Z,100589.78
2023-02-22T22:26:55.823Z,100580.94
2023-02-22T22:29:28.620Z,100581.84
2023-02-22T22:31:55.898Z,100582.75
2023-02-22T22:34:29.368Z,100576.53
2023-02-22T22:37:00.469Z,100586.28
2023-02-22T22:39:27.715Z,100582.75
2023-02-22T22:41:54.773Z,100582.78
2023-02-22T22:44:26.213Z,100582.78
2023-02-22T22:46:54.722Z,100587.25
2023-02-22T22:49:23.604Z,100588.13
2023-02-22T22:51:51.053Z,100594.34
2023-02-22T22:54:18.209Z,100596.09
2023-02-22T22:56:44.999Z,100595.25
2023-02-22T22:59:13.142Z,100597.91
2023-02-22T23:01:44.430Z,100605.88
2023-02-22T23:04:16.901Z,100599.69
2023-02-22T23:06:47.816Z,100597.06
2023-02-22T23:09:24.459Z,100593.50
2023-02-22T23:12:08.435Z,100603.25
2023-02-22T23:14:43.886Z,100604.13
2023-02-22T23:17:15.743Z,100595.34
2023-02-22T23:19:44.828Z,100601.50
2023-02-22T23:22:14.055Z,100595.34
2023-02-22T23:24:41.112Z,100601.56
2023-02-22T23:27:10.572Z,100604.22
2023-02-22T23:29:40.427Z,100603.34
2023-02-22T23:32:08.639Z,100600.72
2023-02-22T23:34:37.092Z,100605.16
2023-02-22T23:37:03.947Z,100606.06
2023-02-22T23:39:30.791Z,100606.09
2023-02-22T23:42:01.387Z,100606.06
2023-02-22T23:44:29.073Z,100607.88
2023-02-22T23:46:56.170Z,100607.88
2023-02-22T23:49:35.450Z,100611.44
2023-02-22T23:52:03.679Z,100604.38
2023-02-22T23:54:36.790Z,100609.69
2023-02-22T23:57:04.799Z,100601.75
2023-02-22T23:59:32.993Z,100609.69
